Time;durP1;ratioP1;P1;durP2;ratioP2;P2;SDS_P1;SDS_P2;PMS_P1;PMS_P2;Temp;Humidity;BMP_temperature;BMP_pressure;BME280_temperature;BME280_humidity;BME280_pressure;Samples;Min_cycle;Max_cycle;Signal;HPM_P1;HPM_P2
2023/06/25 00:00:30;;;;;;;9.05;2.70;;;18.90;99.90;;;;;;5058672;28;20024;-88
2023/06/25 00:02:56;;;;;;;5.03;2.70;;;18.90;99.90;;;;;;5058566;28;20572;-87
2023/06/25 00:05:21;;;;;;;6.88;3.78;;;18.80;99.90;;;;;;5057654;28;20028;-87
2023/06/25 00:07:47;;;;;;;7.47;3.00;;;18.80;99.90;;;;;;5076043;28;20028;-86
2023/06/25 00:10:13;;;;;;;3.67;2.50;;;18.80;99.90;;;;;;5059319;28;20530;-86
2023/06/25 00:12:39;;;;;;;5.00;2.80;;;18.80;99.90;;;;;;5059465;28;20024;-87
2023/06/25 00:15:06;;;;;;;6.25;3.53;;;18.80;99.90;;;;;;5059494;28;20036;-87
2023/06/25 00:17:31;;;;;;;6.35;2.90;;;18.80;99.90;;;;;;5076718;28;20029;-88
2023/06/25 00:19:58;;;;;;;3.67;2.83;;;18.80;99.90;;;;;;5059428;28;20794;-88
2023/06/25 00:22:24;;;;;;;4.60;2.50;;;18.70;99.90;;;;;;5068551;28;20024;-87
2023/06/25 00:24:50;;;;;;;4.88;2.40;;;18.80;99.90;;;;;;5064118;28;20128;-85
2023/06/25 00:27:16;;;;;;;5.63;2.53;;;18.80;99.90;;;;;;5073837;28;20019;-87
2023/06/25 00:29:42;;;;;;;11.55;3.40;;;18.70;99.90;;;;;;5081945;28;20013;-85
2023/06/25 00:32:08;;;;;;;5.32;3.40;;;18.70;99.90;;;;;;5076701;28;20508;-88
2023/06/25 00:34:41;;;;;;;6.07;3.28;;;18.70;99.90;;;;;;5084120;28;20061;-88
2023/06/25 00:37:16;;;;;;;9.02;3.28;;;18.60;99.90;;;;;;5064968;28;20067;-87
2023/06/25 00:39:45;;;;;;;14.55;3.97;;;18.60;99.90;;;;;;5075083;28;20016;-88
2023/06/25 00:42:12;;;;;;;5.22;3.00;;;18.60;99.90;;;;;;5058311;28;20029;-89
2023/06/25 00:44:40;;;;;;;7.03;4.10;;;18.50;99.90;;;;;;5075372;28;20401;-89
2023/06/25 00:47:12;;;;;;;5.28;3.50;;;18.60;99.90;;;;;;5058271;28;20137;-89
2023/06/25 00:49:39;;;;;;;6.70;3.47;;;18.60;99.90;;;;;;5074616;28;20032;-87
2023/06/25 00:52:08;;;;;;;13.23;3.92;;;18.60;99.90;;;;;;5057631;28;20024;-88
2023/06/25 00:54:39;;;;;;;9.20;3.58;;;18.60;99.90;;;;;;5057798;28;20029;-87
2023/06/25 00:57:06;;;;;;;8.98;3.90;;;18.60;99.90;;;;;;5057373;28;20508;-88
2023/06/25 00:59:35;;;;;;;7.13;2.90;;;18.60;99.90;;;;;;5057883;28;20035;-89
2023/06/25 01:02:25;;;;;;;8.23;3.58;;;18.60;99.90;;;;;;5057718;28;20119;-90
2023/06/25 01:04:59;;;;;;;7.47;4.10;;;18.60;99.90;;;;;;5039768;28;20032;-88
2023/06/25 01:07:25;;;;;;;7.05;3.55;;;18.60;99.90;;;;;;5074354;28;20473;-90
2023/06/25 01:09:53;;;;;;;7.05;3.78;;;18.50;99.90;;;;;;5056095;28;20427;-89
2023/06/25 01:12:19;;;;;;;7.78;3.72;;;18.40;99.90;;;;;;5074548;28;20081;-88
2023/06/25 01:14:48;;;;;;;5.90;3.28;;;18.40;99.90;;;;;;5056972;28;20084;-88
2023/06/25 01:17:14;;;;;;;5.88;3.25;;;18.40;99.90;;;;;;5057305;28;20202;-88
2023/06/25 01:19:40;;;;;;;5.82;3.22;;;18.40;99.90;;;;;;5057010;28;20548;-88
2023/06/25 01:22:07;;;;;;;9.55;3.85;;;18.40;99.90;;;;;;5056585;28;20025;-86
2023/06/25 01:24:36;;;;;;;6.88;3.72;;;18.40;99.90;;;;;;5056716;28;20100;-88
2023/06/25 01:27:04;;;;;;;8.30;3.83;;;18.40;99.90;;;;;;5056760;28;20111;-85
2023/06/25 01:29:32;;;;;;;8.77;4.25;;;18.40;99.90;;;;;;5055931;28;20024;-86
2023/06/25 01:31:58;;;;;;;8.82;4.38;;;18.40;99.90;;;;;;5056786;28;20028;-87
2023/06/25 01:34:24;;;;;;;6.40;3.50;;;18.40;99.90;;;;;;5056921;28;20021;-87
2023/06/25 01:36:51;;;;;;;7.05;3.03;;;18.40;99.90;;;;;;5055669;28;20489;-88
2023/06/25 01:39:17;;;;;;;11.38;4.70;;;18.40;99.90;;;;;;5056837;28;20560;-87
2023/06/25 01:41:44;;;;;;;8.38;3.20;;;18.50;99.90;;;;;;5056446;28;20021;-86
2023/06/25 01:44:34;;;;;;;11.15;3.63;;;18.50;99.90;;;;;;5055419;28;20388;-88
2023/06/25 01:47:00;;;;;;;11.05;3.40;;;18.50;99.90;;;;;;5055155;28;20094;-87
2023/06/25 01:49:26;;;;;;;11.75;4.05;;;18.40;99.90;;;;;;5055622;28;20544;-87
2023/06/25 01:51:52;;;;;;;6.53;3.55;;;18.40;99.90;;;;;;5054887;28;20028;-88
2023/06/25 01:54:17;;;;;;;9.20;3.80;;;18.50;99.90;;;;;;5055049;28;20400;-87
2023/06/25 01:56:43;;;;;;;8.82;3.72;;;18.50;99.90;;;;;;5054546;28;20131;-86
2023/06/25 01:59:09;;;;;;;7.45;3.75;;;18.50;99.90;;;;;;5054564;28;20024;-87
2023/06/25 02:01:35;;;;;;;8.88;3.85;;;18.40;99.90;;;;;;5056015;28;20473;-88
2023/06/25 02:04:01;;;;;;;4.75;2.80;;;18.40;99.90;;;;;;5056337;28;20059;-88
2023/06/25 02:06:27;;;;;;;13.73;3.92;;;18.30;99.90;;;;;;5056369;28;20033;-87
2023/06/25 02:08:53;;;;;;;7.60;4.20;;;18.30;99.90;;;;;;5056390;28;20598;-88
2023/06/25 02:11:19;;;;;;;10.40;3.92;;;18.30;99.90;;;;;;5055612;28;20039;-88
2023/06/25 02:13:44;;;;;;;12.07;4.50;;;18.30;99.90;;;;;;5055659;28;20024;-89
2023/06/25 02:16:10;;;;;;;8.85;4.13;;;18.30;99.90;;;;;;5056530;28;20109;-89
2023/06/25 02:18:36;;;;;;;8.82;3.78;;;18.20;99.90;;;;;;5056165;28;20048;-89
2023/06/25 02:21:02;;;;;;;7.72;4.00;;;18.20;99.90;;;;;;5074064;28;20032;-89
2023/06/25 02:23:27;;;;;;;10.63;4.07;;;18.10;99.90;;;;;;5056108;28;20035;-90
2023/06/25 02:25:53;;;;;;;12.43;4.47;;;18.10;99.90;;;;;;5056264;28;20045;-90
2023/06/25 02:28:19;;;;;;;9.25;3.72;;;18.00;99.90;;;;;;5054253;28;20039;-90
2023/06/25 02:30:45;;;;;;;13.48;3.97;;;18.00;99.90;;;;;;5055381;28;20481;-89
2023/06/25 02:33:10;;;;;;;18.17;3.75;;;18.00;99.90;;;;;;5073608;28;20056;-88
2023/06/25 02:35:36;;;;;;;6.97;3.28;;;18.00;99.90;;;;;;5055937;28;20489;-89
2023/06/25 02:38:02;;;;;;;7.53;3.40;;;18.00;99.90;;;;;;5071430;28;20054;-88
2023/06/25 02:40:28;;;;;;;10.68;3.88;;;17.90;99.90;;;;;;5059865;28;20107;-89
2023/06/25 02:42:55;;;;;;;5.20;3.33;;;18.00;99.90;;;;;;5055977;28;20056;-90
2023/06/25 02:45:20;;;;;;;4.85;3.00;;;18.00;99.90;;;;;;5058594;28;20032;-91
2023/06/25 02:47:46;;;;;;;9.77;3.55;;;18.00;99.90;;;;;;5055883;28;20389;-87
2023/06/25 02:50:12;;;;;;;8.15;4.05;;;18.00;99.90;;;;;;5055595;28;20048;-87
2023/06/25 02:52:38;;;;;;;4.97;3.17;;;18.10;99.90;;;;;;5072980;28;20404;-88
2023/06/25 02:55:04;;;;;;;7.95;3.38;;;18.10;99.90;;;;;;5055170;28;20035;-87
2023/06/25 02:57:29;;;;;;;9.85;3.50;;;18.10;99.90;;;;;;5055344;28;20393;-87
2023/06/25 02:59:56;;;;;;;9.88;4.22;;;18.10;99.90;;;;;;5054975;28;20025;-86
2023/06/25 03:02:22;;;;;;;14.35;6.03;;;18.10;99.90;;;;;;5055214;28;20082;-87
2023/06/25 03:04:47;;;;;;;7.38;2.90;;;18.10;99.90;;;;;;5055229;28;20024;-87
2023/06/25 03:07:13;;;;;;;12.38;3.53;;;18.10;99.90;;;;;;5054964;28;20042;-88
2023/06/25 03:09:39;;;;;;;9.38;3.70;;;18.10;99.90;;;;;;5055286;28;20024;-88
2023/06/25 03:12:05;;;;;;;10.93;3.75;;;18.10;99.90;;;;;;5072608;28;20103;-88
2023/06/25 03:14:31;;;;;;;5.38;3.20;;;18.20;99.90;;;;;;5053886;28;20035;-87
2023/06/25 03:16:56;;;;;;;4.40;3.20;;;18.20;99.90;;;;;;5055045;28;20036;-87
2023/06/25 03:19:22;;;;;;;12.25;3.83;;;18.20;99.90;;;;;;5054851;28;20017;-90
2023/06/25 03:21:48;;;;;;;10.52;4.25;;;18.30;99.90;;;;;;5054439;28;20067;-91
2023/06/25 03:24:14;;;;;;;11.95;3.20;;;18.30;99.90;;;;;;5054629;28;20067;-89
2023/06/25 03:26:40;;;;;;;14.77;3.90;;;18.30;99.90;;;;;;5054739;28;20087;-89
2023/06/25 03:29:07;;;;;;;5.85;2.70;;;18.40;99.90;;;;;;5055585;28;20044;-88
2023/06/25 03:31:36;;;;;;;6.40;3.72;;;18.40;99.90;;;;;;5055221;28;20021;-90
2023/06/25 03:34:01;;;;;;;4.68;3.50;;;18.40;99.90;;;;;;5072742;28;20531;-87
2023/06/25 03:36:27;;;;;;;7.32;4.40;;;18.50;99.90;;;;;;5072380;28;20037;-87
2023/06/25 03:38:53;;;;;;;8.93;3.35;;;18.50;99.90;;;;;;5055015;28;20463;-89
2023/06/25 03:41:18;;;;;;;5.20;3.28;;;18.50;99.90;;;;;;5055001;28;20127;-89
2023/06/25 03:43:44;;;;;;;3.83;3.30;;;18.50;99.90;;;;;;5057147;28;20028;-93
2023/06/25 03:46:10;;;;;;;6.93;3.22;;;18.60;99.90;;;;;;5056946;28;20032;-91
2023/06/25 03:48:36;;;;;;;6.13;3.33;;;18.60;99.90;;;;;;5055316;28;20021;-86
2023/06/25 03:51:02;;;;;;;5.35;2.78;;;18.70;99.90;;;;;;5056242;28;20550;-90
2023/06/25 03:53:27;;;;;;;9.45;2.80;;;18.70;99.90;;;;;;5073077;28;20025;-91
2023/06/25 03:55:53;;;;;;;2.95;1.35;;;18.80;99.90;;;;;;5055890;28;20074;-89
2023/06/25 03:58:19;;;;;;;2.85;1.05;;;18.70;99.90;;;;;;5055939;28;20020;-88
2023/06/25 04:00:45;;;;;;;8.23;1.40;;;18.70;99.90;;;;;;5072814;28;20032;-88
2023/06/25 04:03:14;;;;;;;2.75;1.17;;;18.80;99.90;;;;;;5056606;28;20027;-91
2023/06/25 04:05:40;;;;;;;5.10;3.30;;;18.70;99.90;;;;;;5073531;28;20070;-88
2023/06/25 04:08:06;;;;;;;14.80;3.97;;;18.70;99.90;;;;;;5083723;28;20016;-91
2023/06/25 04:10:31;;;;;;;14.88;4.13;;;18.70;99.90;;;;;;5074963;28;20020;-87
2023/06/25 04:12:57;;;;;;;13.80;4.10;;;18.70;99.90;;;;;;5091370;28;20037;-87
2023/06/25 04:15:26;;;;;;;4.45;3.53;;;18.70;99.90;;;;;;5079987;28;20021;-90
2023/06/25 04:17:52;;;;;;;12.73;4.03;;;18.70;99.90;;;;;;5086648;28;20068;-90
2023/06/25 04:20:18;;;;;;;9.73;4.47;;;18.80;99.90;;;;;;5059115;28;20503;-90
2023/06/25 04:22:44;;;;;;;8.70;4.25;;;18.80;99.90;;;;;;5058488;28;20052;-88
2023/06/25 04:25:09;;;;;;;10.48;4.00;;;18.80;99.90;;;;;;5076121;28;20072;-88
2023/06/25 04:27:35;;;;;;;9.60;3.63;;;18.90;99.90;;;;;;5057869;28;20028;-88
2023/06/25 04:30:01;;;;;;;8.18;3.63;;;18.90;99.90;;;;;;5058215;28;20052;-87
2023/06/25 04:32:26;;;;;;;7.07;4.18;;;19.00;99.90;;;;;;5057534;28;20080;-89
2023/06/25 04:34:52;;;;;;;9.73;4.22;;;19.10;99.90;;;;;;5056690;28;20040;-87
2023/06/25 04:37:18;;;;;;;8.98;3.95;;;19.20;99.90;;;;;;5056899;28;20401;-86
2023/06/25 04:39:43;;;;;;;10.10;3.72;;;19.20;99.90;;;;;;5074954;28;20032;-88
2023/06/25 04:42:09;;;;;;;14.52;4.50;;;19.20;99.90;;;;;;5056915;28;20401;-87
2023/06/25 04:44:34;;;;;;;8.13;4.05;;;19.30;99.90;;;;;;5058006;28;20032;-88
2023/06/25 04:47:00;;;;;;;10.10;4.03;;;19.30;99.90;;;;;;5057624;28;20017;-87
2023/06/25 04:49:26;;;;;;;8.15;4.00;;;19.40;99.90;;;;;;5056940;28;20035;-87
2023/06/25 04:51:51;;;;;;;6.38;2.58;;;19.40;99.90;;;;;;5062600;28;20016;-86
2023/06/25 04:54:17;;;;;;;8.00;3.67;;;19.50;99.90;;;;;;5092138;28;20042;-89
2023/06/25 04:56:42;;;;;;;9.50;3.70;;;19.60;99.90;;;;;;5058199;28;20064;-88
2023/06/25 04:59:08;;;;;;;6.18;3.53;;;19.60;99.90;;;;;;5058358;28;20024;-88
2023/06/25 05:01:34;;;;;;;5.70;3.33;;;19.70;99.90;;;;;;5056936;28;20025;-87
2023/06/25 05:03:59;;;;;;;6.32;3.63;;;19.70;99.90;;;;;;5056732;28;20025;-88
2023/06/25 05:06:25;;;;;;;6.90;3.35;;;19.80;99.90;;;;;;5056564;28;20035;-88
2023/06/25 05:08:51;;;;;;;4.70;3.10;;;19.90;99.90;;;;;;5075102;28;20485;-89
2023/06/25 05:11:17;;;;;;;8.15;4.03;;;19.90;99.90;;;;;;5075130;28;20100;-87
2023/06/25 05:13:42;;;;;;;7.05;4.20;;;19.90;99.90;;;;;;5073596;28;20028;-88
2023/06/25 05:16:08;;;;;;;7.90;3.85;;;20.00;99.90;;;;;;5073089;28;20171;-89
2023/06/25 05:18:34;;;;;;;6.55;3.08;;;20.00;99.90;;;;;;5056985;28;20031;-88
2023/06/25 05:20:59;;;;;;;4.53;3.30;;;20.00;99.90;;;;;;5057306;28;20078;-88
2023/06/25 05:23:25;;;;;;;5.07;3.25;;;20.00;99.90;;;;;;5074539;28;20025;-88
2023/06/25 05:25:51;;;;;;;10.70;3.63;;;20.00;99.90;;;;;;5056342;28;20048;-88
2023/06/25 05:28:17;;;;;;;6.05;2.70;;;19.90;99.90;;;;;;5057275;28;20443;-89
2023/06/25 05:30:43;;;;;;;7.70;3.80;;;20.00;99.90;;;;;;5073029;28;20036;-88
2023/06/25 05:33:08;;;;;;;17.13;4.00;;;19.90;99.90;;;;;;5057347;28;20027;-88
2023/06/25 05:35:34;;;;;;;7.18;2.70;;;19.90;99.90;;;;;;5056568;28;20033;-88
2023/06/25 05:38:00;;;;;;;7.53;2.95;;;19.90;99.90;;;;;;5074391;28;20036;-88
2023/06/25 05:40:27;;;;;;;8.00;2.92;;;19.90;99.90;;;;;;5056526;28;20032;-88
2023/06/25 05:42:54;;;;;;;5.78;2.65;;;19.90;99.90;;;;;;5056788;28;20020;-88
2023/06/25 05:45:21;;;;;;;10.88;3.47;;;20.00;99.90;;;;;;5055179;28;20031;-88
2023/06/25 05:47:46;;;;;;;8.93;3.35;;;19.90;99.90;;;;;;5056845;28;20122;-89
2023/06/25 05:50:12;;;;;;;6.35;2.53;;;20.00;99.90;;;;;;5074245;28;20442;-88
2023/06/25 05:52:41;;;;;;;5.65;2.80;;;20.00;99.90;;;;;;5056448;28;20086;-87
2023/06/25 05:55:07;;;;;;;10.00;2.90;;;19.90;99.90;;;;;;5073992;28;20502;-88
2023/06/25 05:57:32;;;;;;;6.45;2.78;;;19.90;99.90;;;;;;5055768;28;20033;-87
2023/06/25 05:59:58;;;;;;;7.82;3.20;;;19.90;99.90;;;;;;5073683;28;20081;-87
2023/06/25 06:02:24;;;;;;;6.95;3.05;;;19.90;99.90;;;;;;5074071;28;20032;-88
2023/06/25 06:04:50;;;;;;;10.32;3.88;;;19.90;99.90;;;;;;5056365;28;20051;-88
2023/06/25 06:07:15;;;;;;;6.68;3.67;;;19.90;99.90;;;;;;5055957;28;20020;-88
2023/06/25 06:09:41;;;;;;;10.02;3.75;;;19.90;99.90;;;;;;5073852;28;20057;-86
2023/06/25 06:12:07;;;;;;;5.72;4.00;;;19.90;99.90;;;;;;5072667;28;20492;-87
2023/06/25 06:14:38;;;;;;;7.72;4.57;;;20.00;99.90;;;;;;5055285;28;20024;-88
2023/06/25 06:17:04;;;;;;;10.07;4.38;;;20.00;99.90;;;;;;5054670;28;20037;-87
2023/06/25 06:19:30;;;;;;;14.75;4.97;;;20.00;99.90;;;;;;5055492;28;20027;-87
2023/06/25 06:21:55;;;;;;;12.98;4.70;;;20.10;99.90;;;;;;5055869;28;20028;-87
2023/06/25 06:24:21;;;;;;;13.30;3.95;;;20.00;99.90;;;;;;5054578;28;20064;-87
2023/06/25 06:26:49;;;;;;;4.28;3.72;;;20.00;99.90;;;;;;5055897;28;20120;-88
2023/06/25 06:29:15;;;;;;;6.50;3.38;;;20.10;99.90;;;;;;5055934;28;20025;-87
2023/06/25 06:31:41;;;;;;;6.32;3.22;;;20.20;99.90;;;;;;5055790;28;20028;-88
2023/06/25 06:34:06;;;;;;;9.18;3.15;;;20.30;99.90;;;;;;5056029;28;20021;-88
2023/06/25 06:36:32;;;;;;;5.78;2.92;;;20.40;99.90;;;;;;5055404;28;20402;-87
2023/06/25 06:38:58;;;;;;;10.10;4.22;;;20.40;99.90;;;;;;5073403;28;20020;-88
2023/06/25 06:41:23;;;;;;;10.90;4.00;;;20.50;99.90;;;;;;5053986;28;20033;-89
2023/06/25 06:43:49;;;;;;;7.28;3.63;;;20.70;99.90;;;;;;5055357;28;20419;-87
2023/06/25 06:46:14;;;;;;;8.70;4.00;;;20.80;99.90;;;;;;5055862;28;20024;-88
2023/06/25 06:48:40;;;;;;;7.00;3.33;;;21.00;99.90;;;;;;5055204;28;20127;-87
2023/06/25 06:51:06;;;;;;;4.95;3.60;;;21.00;99.90;;;;;;5055093;28;20021;-88
2023/06/25 06:53:31;;;;;;;9.57;3.55;;;21.10;99.90;;;;;;5055479;28;20074;-87
2023/06/25 06:55:57;;;;;;;5.72;3.20;;;21.20;99.90;;;;;;5055324;28;20036;-87
2023/06/25 06:58:23;;;;;;;7.28;3.05;;;21.20;99.90;;;;;;5054408;28;20082;-86
2023/06/25 07:00:48;;;;;;;8.88;3.05;;;21.30;99.90;;;;;;5053494;28;20027;-86
2023/06/25 07:03:14;;;;;;;4.95;2.75;;;21.40;99.90;;;;;;5053985;28;20072;-87
2023/06/25 07:05:39;;;;;;;6.40;3.38;;;21.60;99.90;;;;;;5053967;28;20119;-86
2023/06/25 07:08:05;;;;;;;7.95;2.42;;;21.90;99.90;;;;;;5085746;28;20500;-88
2023/06/25 07:10:31;;;;;;;4.90;2.85;;;22.10;99.90;;;;;;5064653;28;20029;-88
2023/06/25 07:12:57;;;;;;;9.50;2.47;;;22.30;99.90;;;;;;5054992;28;20029;-87
2023/06/25 07:15:22;;;;;;;3.75;2.45;;;22.40;99.90;;;;;;5054731;28;20384;-88
2023/06/25 07:17:48;;;;;;;9.00;3.13;;;22.80;99.90;;;;;;5072218;28;20029;-87
2023/06/25 07:20:14;;;;;;;3.92;2.63;;;23.00;99.90;;;;;;5072973;28;20805;-88
2023/06/25 07:22:40;;;;;;;5.13;2.45;;;23.20;99.90;;;;;;5054628;28;20249;-88
2023/06/25 07:25:08;;;;;;;3.65;2.67;;;23.40;99.90;;;;;;5071119;28;20045;-87
2023/06/25 07:27:33;;;;;;;9.18;2.88;;;23.70;99.90;;;;;;5071932;28;20028;-88
2023/06/25 07:29:59;;;;;;;10.40;2.28;;;24.10;99.90;;;;;;5071581;28;20111;-88
2023/06/25 07:32:24;;;;;;;6.20;2.30;;;24.50;99.90;;;;;;5054375;28;20042;-88
2023/06/25 07:34:50;;;;;;;4.35;2.03;;;24.80;99.90;;;;;;5055025;28;20485;-88
2023/06/25 07:37:16;;;;;;;10.70;2.35;;;25.20;99.90;;;;;;5054283;28;20378;-88
2023/06/25 07:39:41;;;;;;;3.25;1.98;;;25.80;99.90;;;;;;5054198;28;20078;-87
2023/06/25 07:42:07;;;;;;;3.45;1.92;;;26.30;96.80;;;;;;5053068;28;20032;-89
2023/06/25 07:44:33;;;;;;;5.95;2.15;;;27.00;93.10;;;;;;5055502;28;20058;-88
2023/06/25 07:46:58;;;;;;;7.68;2.30;;;27.30;88.10;;;;;;5055797;28;20021;-86
2023/06/25 07:49:24;;;;;;;5.40;2.20;;;27.70;81.10;;;;;;5056670;28;20119;-86
2023/06/25 07:51:50;;;;;;;5.28;2.45;;;28.70;82.50;;;;;;5071016;28;20481;-87
2023/06/25 07:54:17;;;;;;;5.82;2.38;;;29.50;76.10;;;;;;5078584;28;20032;-86
2023/06/25 07:56:44;;;;;;;5.28;2.10;;;30.30;73.40;;;;;;5061397;28;20040;-86
2023/06/25 07:59:11;;;;;;;2.83;2.13;;;31.10;65.40;;;;;;5076737;28;20111;-86
2023/06/25 08:01:37;;;;;;;6.47;1.90;;;31.70;61.50;;;;;;5076513;28;20499;-87
2023/06/25 08:04:03;;;;;;;2.80;1.38;;;31.90;57.60;;;;;;5075311;28;20030;-87
2023/06/25 08:06:28;;;;;;;3.17;2.22;;;32.40;52.90;;;;;;5057848;28;20029;-87
2023/06/25 08:08:54;;;;;;;6.20;2.05;;;31.40;54.60;;;;;;5058588;28;20534;-86
2023/06/25 08:11:19;;;;;;;4.38;2.25;;;30.40;55.40;;;;;;5058753;28;20119;-86
2023/06/25 08:13:45;;;;;;;9.55;2.35;;;30.00;56.80;;;;;;5058054;28;20485;-86
2023/06/25 08:16:11;;;;;;;4.30;1.92;;;29.70;55.50;;;;;;5058092;28;20028;-86
2023/06/25 08:18:36;;;;;;;3.40;1.70;;;29.20;56.00;;;;;;5058558;28;20091;-87
2023/06/25 08:21:02;;;;;;;7.35;1.95;;;28.80;56.20;;;;;;5058436;28;20025;-86
2023/06/25 08:23:28;;;;;;;3.70;2.13;;;28.50;58.10;;;;;;5058354;28;20029;-88
2023/06/25 08:25:55;;;;;;;3.42;2.03;;;28.10;57.40;;;;;;5075794;28;20055;-88
2023/06/25 08:28:21;;;;;;;3.42;1.88;;;27.80;56.00;;;;;;5075253;28;20052;-87
2023/06/25 08:30:46;;;;;;;3.38;1.63;;;27.40;58.90;;;;;;5057662;28;20056;-88
2023/06/25 08:33:12;;;;;;;3.15;1.85;;;27.50;57.10;;;;;;5057694;28;20028;-88
2023/06/25 08:35:38;;;;;;;5.00;2.03;;;27.40;57.50;;;;;;5058134;28;20123;-88
2023/06/25 08:38:03;;;;;;;3.13;1.67;;;27.30;59.10;;;;;;5058207;28;20028;-87
2023/06/25 08:40:31;;;;;;;3.42;1.92;;;27.40;59.80;;;;;;5056748;28;20071;-87
2023/06/25 08:42:57;;;;;;;4.65;1.60;;;27.60;60.10;;;;;;5057921;28;20028;-87
2023/06/25 08:45:22;;;;;;;3.10;1.60;;;27.80;60.20;;;;;;5075368;28;20029;-88
2023/06/25 08:47:54;;;;;;;3.50;1.30;;;28.10;60.10;;;;;;5057299;28;20028;-87
2023/06/25 08:50:20;;;;;;;2.90;1.70;;;28.20;61.10;;;;;;5057171;28;20033;-87
2023/06/25 08:52:46;;;;;;;4.63;1.50;;;28.20;60.00;;;;;;5057632;28;20060;-86
2023/06/25 08:55:13;;;;;;;2.33;1.55;;;28.20;60.30;;;;;;5075338;28;20025;-88
2023/06/25 08:57:39;;;;;;;3.00;1.60;;;28.30;59.70;;;;;;5057091;28;20052;-86
2023/06/25 09:00:08;;;;;;;4.75;1.70;;;28.20;59.30;;;;;;5057133;28;20029;-87
2023/06/25 09:02:35;;;;;;;4.10;1.27;;;28.20;60.10;;;;;;5057339;28;20024;-88
2023/06/25 09:05:10;;;;;;;3.63;1.73;;;28.10;60.50;;;;;;5056786;28;20485;-88
2023/06/25 09:07:43;;;;;;;3.08;1.52;;;28.30;59.30;;;;;;5057598;28;20021;-88
2023/06/25 09:10:09;;;;;;;3.22;1.63;;;28.60;58.80;;;;;;5057298;28;20032;-87
2023/06/25 09:12:35;;;;;;;5.30;1.60;;;28.70;58.70;;;;;;5074436;28;20465;-86
2023/06/25 09:15:01;;;;;;;3.35;1.52;;;29.30;56.30;;;;;;5056481;28;20025;-85
2023/06/25 09:17:26;;;;;;;4.72;1.63;;;29.50;55.90;;;;;;5056626;28;20143;-85
2023/06/25 09:19:52;;;;;;;6.15;1.65;;;29.20;56.40;;;;;;5056324;28;20025;-84
2023/06/25 09:22:18;;;;;;;2.80;1.92;;;28.90;57.30;;;;;;5063808;28;20052;-86
2023/06/25 09:24:47;;;;;;;4.03;1.88;;;28.60;57.20;;;;;;5084181;28;20036;-87
2023/06/25 09:27:13;;;;;;;6.65;1.55;;;28.20;59.80;;;;;;5056629;28;20035;-88
2023/06/25 09:29:39;;;;;;;3.72;1.58;;;28.00;59.00;;;;;;5056731;28;20025;-88
2023/06/25 09:32:10;;;;;;;4.68;1.40;;;28.00;59.90;;;;;;5056750;28;20028;-88
2023/06/25 09:34:37;;;;;;;3.72;1.55;;;27.70;58.00;;;;;;5056652;28;20061;-88
2023/06/25 09:37:06;;;;;;;4.43;1.70;;;27.30;60.10;;;;;;5056884;28;20110;-88
2023/06/25 09:39:31;;;;;;;7.70;1.77;;;27.30;59.70;;;;;;5054926;28;20032;-88
2023/06/25 09:42:00;;;;;;;2.03;1.42;;;27.20;61.50;;;;;;5056308;28;20029;-87
2023/06/25 09:44:29;;;;;;;3.22;1.75;;;27.30;62.40;;;;;;5056838;28;20024;-86
2023/06/25 09:47:07;;;;;;;1.92;1.30;;;27.60;61.90;;;;;;5056444;28;20119;-87
2023/06/25 09:49:33;;;;;;;4.28;1.33;;;27.70;59.30;;;;;;5074414;28;20055;-88
2023/06/25 09:52:14;;;;;;;7.53;1.40;;;27.60;59.20;;;;;;5056373;28;20052;-87
2023/06/25 09:54:42;;;;;;;2.17;1.42;;;27.70;59.30;;;;;;5056325;28;20029;-88
2023/06/25 09:57:16;;;;;;;7.00;1.83;;;27.70;59.20;;;;;;5056173;28;20039;-88
2023/06/25 09:59:42;;;;;;;2.67;1.17;;;27.70;57.40;;;;;;5055116;28;20063;-86
2023/06/25 10:02:07;;;;;;;3.40;1.60;;;27.60;57.90;;;;;;5055165;28;20046;-86
2023/06/25 10:04:34;;;;;;;2.65;1.48;;;27.70;58.60;;;;;;5056182;28;20024;-88
2023/06/25 10:07:02;;;;;;;4.43;1.52;;;28.10;61.20;;;;;;5056265;28;20094;-87
2023/06/25 10:09:28;;;;;;;3.10;1.58;;;28.00;58.40;;;;;;5056205;28;20087;-87
2023/06/25 10:11:57;;;;;;;5.13;1.70;;;28.20;58.50;;;;;;5055939;28;20424;-86
2023/06/25 10:14:23;;;;;;;2.20;1.50;;;28.10;58.80;;;;;;5055915;28;20078;-86
2023/06/25 10:16:57;;;;;;;7.45;1.73;;;28.00;59.50;;;;;;5055157;28;20432;-88
2023/06/25 10:19:26;;;;;;;3.40;1.52;;;28.10;57.90;;;;;;5055940;28;20059;-88
2023/06/25 10:22:06;;;;;;;3.40;1.60;;;27.90;61.60;;;;;;5055678;28;20028;-89
2023/06/25 10:24:42;;;;;;;4.95;1.38;;;27.80;61.70;;;;;;5056153;28;20024;-90
2023/06/25 10:27:22;;;;;;;5.63;1.30;;;28.00;62.00;;;;;;5055835;28;20032;-88
2023/06/25 10:29:47;;;;;;;4.47;1.77;;;28.10;59.60;;;;;;5056072;28;20032;-89
2023/06/25 10:32:13;;;;;;;2.13;1.35;;;28.10;58.90;;;;;;5055876;28;20028;-88
2023/06/25 10:34:40;;;;;;;3.00;2.22;;;27.90;59.10;;;;;;5072878;28;20089;-88
2023/06/25 10:37:07;;;;;;;7.13;1.52;;;27.80;61.90;;;;;;5073762;28;20101;-88
2023/06/25 10:39:40;;;;;;;2.17;1.20;;;28.00;61.10;;;;;;5055057;28;20028;-89
2023/06/25 10:42:06;;;;;;;5.82;1.50;;;28.00;57.30;;;;;;5072881;28;20029;-88
2023/06/25 10:44:32;;;;;;;2.38;1.25;;;27.90;57.70;;;;;;5053773;28;20040;-88
2023/06/25 10:47:06;;;;;;;4.18;1.60;;;27.90;59.00;;;;;;5071492;28;20393;-89
2023/06/25 10:49:32;;;;;;;2.35;1.13;;;27.90;54.90;;;;;;5055445;28;20032;-88
2023/06/25 10:52:02;;;;;;;3.55;1.50;;;27.80;54.50;;;;;;5056151;28;20032;-87
2023/06/25 10:54:27;;;;;;;2.67;1.20;;;28.00;57.10;;;;;;5056310;28;20116;-90
2023/06/25 10:57:07;;;;;;;2.25;1.35;;;28.00;57.70;;;;;;5057529;28;20067;-89
2023/06/25 10:59:33;;;;;;;2.88;1.42;;;28.00;55.70;;;;;;5057356;28;20025;-89
2023/06/25 11:02:18;;;;;;;4.38;1.38;;;27.80;54.60;;;;;;5072829;28;20436;-89
2023/06/25 11:05:11;;;;;;;3.97;1.30;;;27.80;55.90;;;;;;5056038;28;20024;-88
2023/06/25 11:07:36;;;;;;;5.25;1.33;;;27.90;52.60;;;;;;5051899;28;20041;-90
2023/06/25 11:10:02;;;;;;;2.55;1.75;;;27.80;52.50;;;;;;5056026;28;20039;-89
2023/06/25 11:12:29;;;;;;;5.22;1.52;;;27.70;53.10;;;;;;5073676;28;20476;-89
2023/06/25 11:14:55;;;;;;;2.42;1.55;;;27.80;52.80;;;;;;5055759;28;20035;-89
2023/06/25 11:17:20;;;;;;;3.65;1.33;;;27.70;54.60;;;;;;5055859;28;20040;-89
2023/06/25 11:19:57;;;;;;;3.72;2.03;;;27.70;54.80;;;;;;5055636;28;20485;-89
2023/06/25 11:22:26;;;;;;;3.65;1.83;;;27.60;53.50;;;;;;5070534;28;20036;-88
2023/06/25 11:24:51;;;;;;;2.50;1.58;;;27.60;54.50;;;;;;5078500;28;20048;-89
2023/06/25 11:27:26;;;;;;;2.97;1.85;;;27.50;51.40;;;;;;5076209;28;20104;-89
2023/06/25 11:29:56;;;;;;;2.47;1.60;;;27.40;54.90;;;;;;5060879;28;20392;-88
2023/06/25 11:32:27;;;;;;;3.30;1.70;;;27.30;53.40;;;;;;5058723;28;20035;-89
2023/06/25 11:34:53;;;;;;;3.28;1.98;;;27.20;49.30;;;;;;5057094;28;20029;-89
2023/06/25 11:37:19;;;;;;;4.20;1.70;;;27.10;49.50;;;;;;5090203;28;20055;-88
2023/06/25 11:39:45;;;;;;;3.20;1.48;;;27.10;52.40;;;;;;5065792;28;20492;-88
2023/06/25 11:42:13;;;;;;;2.30;1.42;;;27.10;52.30;;;;;;5075990;28;20031;-90
2023/06/25 11:44:39;;;;;;;3.92;1.70;;;27.20;51.20;;;;;;5074976;28;20034;-89
2023/06/25 11:47:06;;;;;;;4.32;1.35;;;27.20;50.00;;;;;;5057077;28;20477;-90
2023/06/25 11:49:32;;;;;;;2.75;1.65;;;27.00;50.60;;;;;;5057547;28;20058;-89
2023/06/25 11:52:00;;;;;;;3.20;1.67;;;26.90;50.60;;;;;;5056458;28;20032;-89
2023/06/25 11:54:26;;;;;;;2.67;1.63;;;26.70;49.70;;;;;;5056402;28;20048;-89
2023/06/25 11:56:51;;;;;;;3.13;1.77;;;26.70;49.50;;;;;;5056468;28;20068;-89
2023/06/25 11:59:17;;;;;;;3.33;1.67;;;26.70;50.30;;;;;;5056236;28;20210;-89
2023/06/25 12:01:43;;;;;;;2.25;1.50;;;26.60;52.20;;;;;;5056017;28;20032;-88
2023/06/25 12:04:08;;;;;;;2.35;1.48;;;26.50;51.60;;;;;;5055928;28;20024;-89
2023/06/25 12:06:34;;;;;;;1.98;1.35;;;26.50;52.80;;;;;;5056272;28;20046;-89
2023/06/25 12:09:00;;;;;;;3.38;1.63;;;26.60;52.00;;;;;;5074021;28;20028;-89
2023/06/25 12:11:26;;;;;;;6.10;1.65;;;26.50;49.30;;;;;;5056253;28;20024;-88
2023/06/25 12:13:51;;;;;;;3.67;1.83;;;26.60;49.10;;;;;;5055832;28;20048;-87
2023/06/25 12:16:17;;;;;;;3.15;1.90;;;26.60;47.00;;;;;;5056619;28;20528;-88
2023/06/25 12:18:43;;;;;;;2.75;1.67;;;26.50;50.40;;;;;;5056559;28;20036;-89
2023/06/25 12:21:08;;;;;;;8.00;2.17;;;26.50;51.70;;;;;;5074280;28;20050;-88
2023/06/25 12:23:34;;;;;;;3.17;1.63;;;26.70;50.40;;;;;;5075325;28;20035;-88
2023/06/25 12:26:00;;;;;;;3.67;1.98;;;26.70;50.70;;;;;;5055672;28;20087;-86
2023/06/25 12:28:26;;;;;;;2.67;1.60;;;26.80;50.10;;;;;;5055903;28;20484;-88
2023/06/25 12:30:51;;;;;;;3.05;1.70;;;26.80;50.50;;;;;;5054483;28;20052;-88
2023/06/25 12:33:17;;;;;;;2.97;1.65;;;26.70;51.30;;;;;;5054485;28;20070;-88
2023/06/25 12:35:43;;;;;;;3.67;1.67;;;26.60;52.60;;;;;;5054289;28;20051;-89
2023/06/25 12:38:08;;;;;;;2.50;1.60;;;26.70;53.40;;;;;;5054489;28;20032;-89
2023/06/25 12:40:34;;;;;;;3.15;1.55;;;26.70;52.20;;;;;;5056821;28;20044;-89
2023/06/25 12:43:00;;;;;;;2.83;1.42;;;26.70;49.90;;;;;;5058623;28;20393;-87